Time;durP1;ratioP1;P1;durP2;ratioP2;P2;SDS_P1;SDS_P2;PMS_P1;PMS_P2;Temp;Humidity;BMP_temperature;BMP_pressure;BME280_temperature;BME280_humidity;BME280_pressure;Samples;Min_cycle;Max_cycle;Signal;HPM_P1;HPM_P2
2023/08/03 00:01:47;;;;;;;3.38;1.00;;;16.80;86.60;;;;;;5111266;27;20616;-74
2023/08/03 00:04:13;;;;;;;3.78;1.08;;;16.80;86.50;;;;;;5110189;28;20044;-74
2023/08/03 00:06:40;;;;;;;4.45;0.88;;;16.80;86.50;;;;;;5111529;27;20056;-75
2023/08/03 00:09:07;;;;;;;5.60;1.00;;;16.80;86.70;;;;;;5108582;28;20048;-74
2023/08/03 00:11:34;;;;;;;4.25;0.80;;;16.80;86.70;;;;;;5093031;28;20263;-74
2023/08/03 00:14:01;;;;;;;4.55;1.02;;;16.80;86.60;;;;;;5109767;28;20135;-74
2023/08/03 00:16:29;;;;;;;4.72;0.80;;;16.80;86.70;;;;;;5110116;27;20059;-75
2023/08/03 00:18:56;;;;;;;4.18;0.93;;;16.80;86.70;;;;;;5109893;28;20139;-74
2023/08/03 00:21:23;;;;;;;4.53;0.90;;;16.80;86.90;;;;;;5109413;28;20056;-73
2023/08/03 00:23:50;;;;;;;4.18;0.85;;;16.80;86.90;;;;;;5093095;28;20293;-74
2023/08/03 00:26:17;;;;;;;3.75;0.70;;;16.80;86.80;;;;;;5109323;27;20126;-74
2023/08/03 00:28:44;;;;;;;3.88;1.00;;;16.80;86.90;;;;;;5111463;27;20047;-74
2023/08/03 00:31:10;;;;;;;3.65;0.70;;;16.80;86.90;;;;;;5109515;28;20131;-74
2023/08/03 00:33:39;;;;;;;5.13;0.80;;;16.80;86.90;;;;;;5109843;28;20056;-74
2023/08/03 00:36:06;;;;;;;2.53;0.60;;;16.70;86.90;;;;;;5109567;28;20299;-74
2023/08/03 00:38:32;;;;;;;2.90;0.70;;;16.80;87.10;;;;;;5092479;28;20337;-74
2023/08/03 00:40:59;;;;;;;4.07;0.85;;;16.70;87.10;;;;;;5092338;28;20052;-74
2023/08/03 00:43:26;;;;;;;2.97;0.60;;;16.80;87.20;;;;;;5091176;28;20142;-75
2023/08/03 00:45:54;;;;;;;4.97;0.80;;;16.70;87.30;;;;;;5109707;28;20123;-75
2023/08/03 00:48:21;;;;;;;2.72;0.60;;;16.70;87.50;;;;;;5092431;28;20271;-75
2023/08/03 00:50:49;;;;;;;3.58;0.93;;;16.70;87.40;;;;;;5111701;27;20106;-74
2023/08/03 00:53:16;;;;;;;3.17;0.70;;;16.70;87.30;;;;;;5103576;28;20052;-75
2023/08/03 00:55:43;;;;;;;2.03;0.50;;;16.70;87.30;;;;;;5107989;27;20054;-75
2023/08/03 00:58:09;;;;;;;3.47;0.67;;;16.70;87.50;;;;;;5072261;28;20059;-75
2023/08/03 01:00:37;;;;;;;3.30;0.90;;;16.70;87.60;;;;;;5107919;27;20274;-75
2023/08/03 01:03:04;;;;;;;4.45;0.82;;;16.70;87.50;;;;;;5108276;27;20048;-75
2023/08/03 01:05:32;;;;;;;2.38;0.60;;;16.70;87.60;;;;;;5110947;28;20496;-75
2023/08/03 01:08:00;;;;;;;3.65;0.90;;;16.70;87.70;;;;;;5108939;28;20044;-75
2023/08/03 01:10:28;;;;;;;3.00;0.70;;;16.70;87.80;;;;;;5110355;27;20052;-75
2023/08/03 01:12:56;;;;;;;3.97;0.60;;;16.70;87.90;;;;;;5126440;27;20316;-75
2023/08/03 01:15:23;;;;;;;2.70;0.70;;;16.70;87.80;;;;;;5126120;27;20612;-75
2023/08/03 01:17:50;;;;;;;3.05;0.70;;;16.70;88.00;;;;;;5109323;28;20052;-75
2023/08/03 01:20:19;;;;;;;3.85;0.70;;;16.70;88.00;;;;;;5107204;28;20536;-75
2023/08/03 01:22:48;;;;;;;2.20;0.50;;;16.70;88.00;;;;;;5110084;27;20172;-75
2023/08/03 01:25:15;;;;;;;3.13;0.65;;;16.70;88.00;;;;;;5091478;28;20346;-75
2023/08/03 01:27:45;;;;;;;3.88;0.75;;;16.70;88.20;;;;;;5108776;28;20106;-75
2023/08/03 01:30:12;;;;;;;2.92;0.60;;;16.60;88.00;;;;;;5108577;28;20099;-75
2023/08/03 01:32:39;;;;;;;4.18;0.70;;;16.70;88.30;;;;;;5108787;28;20113;-75
2023/08/03 01:35:08;;;;;;;3.73;0.77;;;16.60;88.20;;;;;;5091690;28;20650;-75
2023/08/03 01:37:35;;;;;;;3.45;0.75;;;16.60;88.20;;;;;;5106490;28;20768;-75
2023/08/03 01:40:04;;;;;;;2.35;0.50;;;16.70;88.40;;;;;;5091593;28;20572;-75
2023/08/03 01:42:31;;;;;;;3.10;0.70;;;16.70;88.40;;;;;;5091739;28;20502;-75
2023/08/03 01:44:58;;;;;;;3.58;0.60;;;16.70;88.30;;;;;;5091507;28;20040;-75
2023/08/03 01:47:25;;;;;;;2.63;0.60;;;16.70;88.50;;;;;;5108967;27;20056;-75
2023/08/03 01:49:52;;;;;;;2.70;0.73;;;16.70;88.50;;;;;;5090206;28;20932;-75
2023/08/03 01:52:19;;;;;;;3.13;0.73;;;16.70;88.70;;;;;;5089573;28;20040;-75
2023/08/03 01:54:46;;;;;;;3.15;0.50;;;16.70;88.60;;;;;;5105138;28;20095;-75
2023/08/03 01:57:15;;;;;;;2.60;0.60;;;16.70;88.60;;;;;;5106805;28;20058;-75
2023/08/03 01:59:42;;;;;;;3.70;0.77;;;16.70;88.80;;;;;;5089722;28;20411;-75
2023/08/03 02:02:09;;;;;;;2.67;0.70;;;16.70;88.70;;;;;;5090263;28;20279;-75
2023/08/03 02:04:36;;;;;;;2.70;0.70;;;16.70;88.70;;;;;;5109365;27;20059;-75
2023/08/03 02:07:09;;;;;;;3.53;0.93;;;16.70;88.70;;;;;;5107506;28;20054;-75
2023/08/03 02:09:36;;;;;;;3.08;0.70;;;16.70;88.80;;;;;;5091621;28;20048;-75
2023/08/03 02:12:03;;;;;;;2.67;0.70;;;16.70;88.80;;;;;;5089533;28;20155;-75
2023/08/03 02:14:32;;;;;;;2.78;0.73;;;16.70;88.80;;;;;;5108296;28;20355;-75
2023/08/03 02:16:58;;;;;;;3.65;0.77;;;16.70;88.90;;;;;;5090672;28;20580;-75
2023/08/03 02:19:25;;;;;;;3.28;0.88;;;16.70;89.00;;;;;;5091130;28;20044;-75
2023/08/03 02:21:52;;;;;;;3.38;0.88;;;16.70;89.00;;;;;;5107343;28;20125;-75
2023/08/03 02:24:19;;;;;;;3.90;0.80;;;16.70;89.00;;;;;;5090902;28;20074;-75
2023/08/03 02:26:46;;;;;;;2.85;1.00;;;16.70;89.10;;;;;;5108001;28;20796;-75
2023/08/03 02:29:14;;;;;;;4.22;1.00;;;16.70;89.10;;;;;;5106336;28;20048;-75
2023/08/03 02:31:42;;;;;;;4.55;1.20;;;16.70;89.00;;;;;;5107767;28;20054;-75
2023/08/03 02:34:10;;;;;;;3.28;1.20;;;16.70;89.00;;;;;;5107678;28;20059;-75
2023/08/03 02:36:42;;;;;;;3.77;1.30;;;16.70;89.10;;;;;;5090620;28;20102;-75
2023/08/03 02:39:10;;;;;;;5.53;1.20;;;16.70;89.20;;;;;;5107663;28;20320;-75
2023/08/03 02:41:40;;;;;;;5.53;1.40;;;16.70;89.20;;;;;;5090345;28;20142;-75
2023/08/03 02:44:13;;;;;;;5.05;1.70;;;16.70;89.20;;;;;;5107605;28;20133;-75
2023/08/03 02:46:46;;;;;;;5.50;1.90;;;16.70;89.20;;;;;;5088954;28;20079;-75
2023/08/03 02:49:13;;;;;;;4.63;1.90;;;16.70;89.40;;;;;;5090815;28;20048;-75
2023/08/03 02:51:42;;;;;;;6.20;2.13;;;16.70;89.40;;;;;;5107514;28;20250;-75
2023/08/03 02:54:10;;;;;;;5.53;1.95;;;16.70;89.30;;;;;;5090638;28;20040;-75
2023/08/03 02:56:43;;;;;;;4.95;2.50;;;16.70;89.30;;;;;;5107324;28;20133;-75
2023/08/03 02:59:10;;;;;;;4.70;2.22;;;16.70;89.50;;;;;;5090323;28;20072;-75
2023/08/03 03:01:43;;;;;;;5.53;2.40;;;16.80;89.50;;;;;;5090059;28;20051;-75
2023/08/03 03:04:12;;;;;;;6.35;1.90;;;16.80;89.60;;;;;;5088462;28;20258;-75
2023/08/03 03:06:43;;;;;;;6.25;2.05;;;16.80;89.60;;;;;;5107434;28;20076;-75
2023/08/03 03:09:12;;;;;;;5.75;2.05;;;16.80;89.60;;;;;;5090145;28;20089;-75
2023/08/03 03:11:42;;;;;;;6.13;2.75;;;16.80;89.70;;;;;;5090110;28;20055;-75
2023/08/03 03:14:09;;;;;;;7.50;2.50;;;16.80;89.90;;;;;;5107361;28;20059;-75
2023/08/03 03:16:36;;;;;;;7.90;2.47;;;16.80;90.00;;;;;;5107542;28;20314;-74
2023/08/03 03:19:03;;;;;;;5.75;2.05;;;16.80;90.00;;;;;;5109232;27;20058;-75
2023/08/03 03:21:32;;;;;;;8.23;2.70;;;16.80;90.10;;;;;;5093560;28;20143;-75
2023/08/03 03:23:59;;;;;;;6.43;2.20;;;16.80;90.00;;;;;;5093899;28;20059;-75
2023/08/03 03:26:26;;;;;;;8.03;2.40;;;16.80;90.00;;;;;;5093391;28;20170;-75
2023/08/03 03:28:53;;;;;;;7.45;2.08;;;16.80;90.10;;;;;;5094111;28;20356;-75
2023/08/03 03:31:28;;;;;;;6.18;1.90;;;16.80;90.20;;;;;;5093195;28;20048;-75
2023/08/03 03:33:57;;;;;;;5.13;1.83;;;16.80;90.20;;;;;;5110313;28;20049;-74
2023/08/03 03:36:24;;;;;;;8.23;2.08;;;16.90;90.30;;;;;;5092970;28;20323;-75
2023/08/03 03:38:52;;;;;;;8.43;2.07;;;16.90;90.20;;;;;;5091827;28;20130;-75
2023/08/03 03:41:19;;;;;;;7.25;2.38;;;16.90;90.10;;;;;;5093161;28;20346;-75
2023/08/03 03:43:48;;;;;;;7.60;1.85;;;16.90;90.00;;;;;;5110564;28;20187;-75
2023/08/03 03:46:15;;;;;;;9.23;2.22;;;16.90;90.00;;;;;;5109670;27;20068;-75
2023/08/03 03:48:42;;;;;;;8.60;1.92;;;16.90;89.90;;;;;;5110253;28;20051;-75
2023/08/03 03:51:09;;;;;;;9.13;2.23;;;16.90;90.00;;;;;;5092802;28;20109;-75
2023/08/03 03:53:38;;;;;;;6.80;2.03;;;16.90;89.90;;;;;;5111772;27;20847;-75
2023/08/03 03:56:12;;;;;;;5.63;1.70;;;16.80;89.80;;;;;;5091323;28;20520;-75
2023/08/03 03:58:39;;;;;;;8.50;2.20;;;16.90;89.90;;;;;;5110370;27;20076;-75
2023/08/03 04:01:06;;;;;;;9.80;2.00;;;16.80;89.90;;;;;;5092598;28;20114;-74
2023/08/03 04:03:33;;;;;;;6.33;1.83;;;16.80;90.00;;;;;;5093227;27;20557;-75
2023/08/03 04:06:04;;;;;;;9.25;2.20;;;16.90;90.00;;;;;;5092905;28;20807;-75
2023/08/03 04:08:31;;;;;;;8.07;2.10;;;16.90;89.90;;;;;;5092936;28;20182;-75
2023/08/03 04:10:58;;;;;;;7.10;1.98;;;16.80;89.90;;;;;;5092914;28;20602;-75
2023/08/03 04:13:26;;;;;;;10.57;2.03;;;16.80;90.00;;;;;;5109763;27;20102;-75
2023/08/03 04:15:53;;;;;;;10.27;2.10;;;16.80;89.90;;;;;;5092689;28;20128;-75
2023/08/03 04:18:20;;;;;;;7.95;1.63;;;16.80;89.90;;;;;;5092820;28;20320;-75
2023/08/03 04:20:47;;;;;;;9.68;1.90;;;16.80;89.90;;;;;;5092666;28;20047;-75
2023/08/03 04:23:14;;;;;;;8.73;1.40;;;16.80;89.80;;;;;;5109628;27;20129;-75
2023/08/03 04:25:42;;;;;;;11.23;1.90;;;16.80;89.80;;;;;;5109640;28;20135;-75
2023/08/03 04:28:22;;;;;;;7.70;1.60;;;16.80;89.80;;;;;;5093135;28;20115;-75
2023/08/03 04:30:50;;;;;;;5.53;0.98;;;16.80;89.90;;;;;;5091062;28;20340;-75
2023/08/03 04:33:17;;;;;;;9.18;1.70;;;16.80;89.90;;;;;;5092907;28;20143;-75
2023/08/03 04:35:44;;;;;;;9.80;1.48;;;16.80;89.90;;;;;;5092165;28;20044;-75
2023/08/03 04:38:14;;;;;;;9.63;1.98;;;16.80;89.90;;;;;;5109811;28;20506;-75
2023/08/03 04:40:48;;;;;;;10.00;1.47;;;16.80;90.00;;;;;;5091872;28;20174;-75
2023/08/03 04:43:17;;;;;;;9.45;1.40;;;16.80;90.00;;;;;;5110309;28;20320;-75
2023/08/03 04:45:44;;;;;;;12.23;1.85;;;16.80;90.10;;;;;;5095874;27;20525;-75
2023/08/03 04:48:13;;;;;;;10.57;1.90;;;16.80;90.00;;;;;;5093689;27;20051;-75
2023/08/03 04:50:40;;;;;;;10.48;1.77;;;16.80;90.00;;;;;;5111885;27;20052;-75
2023/08/03 04:53:07;;;;;;;8.00;1.40;;;16.90;89.90;;;;;;5092255;28;20072;-75
2023/08/03 04:55:34;;;;;;;8.95;1.60;;;16.90;89.80;;;;;;5092222;28;20273;-75
2023/08/03 04:58:01;;;;;;;8.05;1.55;;;16.80;89.80;;;;;;5092265;28;20151;-75
2023/08/03 05:00:30;;;;;;;11.10;1.50;;;16.80;89.90;;;;;;5109086;28;20121;-75
2023/08/03 05:03:00;;;;;;;6.80;1.23;;;16.80;89.80;;;;;;5111629;27;20526;-75
2023/08/03 05:05:29;;;;;;;7.70;1.50;;;16.80;89.80;;;;;;5094761;28;20044;-75
2023/08/03 05:07:56;;;;;;;7.38;1.23;;;16.80;89.80;;;;;;5091994;28;21084;-75
2023/08/03 05:10:25;;;;;;;7.03;1.33;;;16.80;89.90;;;;;;5091766;28;20052;-74
2023/08/03 05:12:52;;;;;;;7.63;1.42;;;16.80;90.00;;;;;;5108757;28;20512;-75
2023/08/03 05:15:19;;;;;;;9.77;1.88;;;16.80;90.00;;;;;;5115677;27;20048;-75
2023/08/03 05:17:49;;;;;;;9.73;1.70;;;16.80;90.10;;;;;;5101938;27;20044;-75
2023/08/03 05:20:16;;;;;;;9.00;1.70;;;16.80;90.00;;;;;;5116043;27;20738;-75
2023/08/03 05:22:44;;;;;;;8.48;1.75;;;16.80;90.00;;;;;;5115924;27;20080;-75
2023/08/03 05:25:11;;;;;;;7.57;1.75;;;16.80;90.20;;;;;;5106884;28;20050;-74
2023/08/03 05:27:39;;;;;;;7.35;1.90;;;16.90;90.30;;;;;;5135905;27;20044;-74
2023/08/03 05:30:08;;;;;;;9.70;1.70;;;16.90;90.30;;;;;;5108697;27;20553;-75
2023/08/03 05:32:35;;;;;;;7.05;1.70;;;16.90;90.40;;;;;;5109706;27;20324;-75
2023/08/03 05:35:02;;;;;;;7.90;1.58;;;16.90;90.40;;;;;;5115096;27;20058;-74
2023/08/03 05:37:30;;;;;;;8.45;2.10;;;16.90;90.50;;;;;;5112727;27;20493;-74
2023/08/03 05:39:58;;;;;;;8.48;2.17;;;16.90;90.60;;;;;;5110128;27;20052;-74
2023/08/03 05:42:27;;;;;;;10.50;2.20;;;17.00;90.70;;;;;;5111522;27;20048;-74
2023/08/03 05:44:54;;;;;;;7.25;1.77;;;17.00;90.70;;;;;;5108459;27;20274;-74
2023/08/03 05:47:21;;;;;;;7.07;2.30;;;17.00;90.70;;;;;;5112954;27;20052;-74
2023/08/03 05:49:48;;;;;;;5.97;1.98;;;17.00;90.70;;;;;;5110205;27;20493;-75
2023/08/03 05:52:16;;;;;;;7.28;1.88;;;17.00;90.70;;;;;;5109498;27;20048;-75
2023/08/03 05:54:45;;;;;;;5.93;1.90;;;17.00;90.90;;;;;;5113604;27;20055;-74
2023/08/03 05:57:16;;;;;;;7.40;2.03;;;17.10;90.90;;;;;;5144164;27;20246;-75
2023/08/03 05:59:43;;;;;;;8.13;2.00;;;17.10;90.80;;;;;;5107915;27;20072;-75
2023/08/03 06:02:28;;;;;;;10.43;2.42;;;17.20;90.90;;;;;;5092632;27;20056;-74
2023/08/03 06:04:55;;;;;;;5.78;1.90;;;17.20;91.00;;;;;;5099570;27;20130;-74
2023/08/03 06:07:22;;;;;;;7.60;1.87;;;17.20;90.90;;;;;;5110824;27;20048;-74
2023/08/03 06:09:49;;;;;;;6.05;1.65;;;17.20;91.00;;;;;;5107536;27;20251;-74
2023/08/03 06:12:19;;;;;;;10.32;1.90;;;17.20;90.90;;;;;;5088774;28;20059;-75
2023/08/03 06:14:46;;;;;;;6.55;1.90;;;17.20;90.90;;;;;;5110241;27;20135;-75
2023/08/03 06:17:14;;;;;;;5.85;1.85;;;17.30;90.90;;;;;;5111917;27;20044;-75
2023/08/03 06:19:41;;;;;;;7.63;1.90;;;17.40;90.90;;;;;;5116344;27;20047;-74
2023/08/03 06:22:21;;;;;;;6.47;1.98;;;17.40;91.00;;;;;;5107872;27;20278;-75
2023/08/03 06:24:52;;;;;;;5.40;1.50;;;17.40;91.00;;;;;;5090030;28;20149;-75
2023/08/03 06:27:21;;;;;;;5.95;1.80;;;17.50;90.80;;;;;;5115295;27;20052;-75
2023/08/03 06:29:48;;;;;;;6.10;1.27;;;17.50;90.50;;;;;;5109222;27;20497;-75
2023/08/03 06:32:24;;;;;;;5.27;1.07;;;17.50;90.30;;;;;;5108852;28;20506;-75
2023/08/03 06:34:50;;;;;;;4.55;1.58;;;17.50;90.20;;;;;;5106208;28;20787;-75
2023/08/03 06:37:18;;;;;;;6.38;1.70;;;17.50;90.00;;;;;;5106883;27;20056;-75
2023/08/03 06:39:49;;;;;;;7.47;1.92;;;17.50;90.10;;;;;;5106718;28;20052;-75
2023/08/03 06:42:16;;;;;;;4.28;1.17;;;17.50;90.20;;;;;;5106695;28;20121;-75
2023/08/03 06:44:45;;;;;;;4.37;1.10;;;17.50;90.00;;;;;;5107093;28;20050;-75
2023/08/03 06:47:11;;;;;;;4.43;1.38;;;17.50;89.70;;;;;;5106592;28;20267;-75
2023/08/03 06:49:38;;;;;;;7.68;1.90;;;17.50;89.30;;;;;;5106889;27;20155;-75
2023/08/03 06:52:06;;;;;;;8.05;1.55;;;17.50;89.40;;;;;;5104148;27;20036;-75
2023/08/03 06:54:33;;;;;;;6.28;1.63;;;17.50;89.40;;;;;;5114163;27;20171;-75
2023/08/03 06:56:59;;;;;;;6.63;1.70;;;17.50;89.40;;;;;;5109370;28;20497;-75
2023/08/03 06:59:26;;;;;;;5.50;1.20;;;17.50;89.30;;;;;;5110878;27;20282;-75
2023/08/03 07:01:55;;;;;;;6.82;1.42;;;17.60;89.20;;;;;;5111369;28;20146;-74
2023/08/03 07:04:22;;;;;;;5.40;1.58;;;17.60;89.30;;;;;;5114302;27;20533;-75
2023/08/03 07:06:49;;;;;;;6.97;1.40;;;17.60;89.30;;;;;;5113107;27;20121;-75
2023/08/03 07:09:15;;;;;;;6.40;1.50;;;17.60;89.40;;;;;;5107989;28;20501;-74
2023/08/03 07:11:42;;;;;;;4.40;0.98;;;17.60;89.20;;;;;;5110171;28;20287;-75
2023/08/03 07:14:09;;;;;;;5.15;1.10;;;17.60;89.20;;;;;;5093381;28;20076;-75
2023/08/03 07:16:38;;;;;;;4.50;1.20;;;17.70;88.40;;;;;;5111892;28;20048;-75
2023/08/03 07:19:10;;;;;;;3.75;1.00;;;17.70;88.00;;;;;;5110094;28;20051;-75
2023/08/03 07:21:36;;;;;;;3.20;0.90;;;17.70;88.00;;;;;;5111976;27;20474;-75
2023/08/03 07:24:04;;;;;;;6.28;1.45;;;17.70;87.90;;;;;;5112012;27;20282;-75
2023/08/03 07:26:31;;;;;;;4.25;0.95;;;17.80;88.10;;;;;;5108757;27;20064;-74
2023/08/03 07:28:57;;;;;;;4.97;1.08;;;17.80;88.00;;;;;;5110649;28;20425;-75
2023/08/03 07:31:26;;;;;;;5.45;1.02;;;17.80;88.00;;;;;;5109885;28;20127;-75
2023/08/03 07:33:52;;;;;;;4.73;1.57;;;17.80;88.20;;;;;;5112259;27;20529;-75
2023/08/03 07:36:21;;;;;;;5.20;1.30;;;17.90;88.40;;;;;;5110564;27;20612;-74
2023/08/03 07:38:48;;;;;;;4.63;0.90;;;18.00;87.90;;;;;;5112088;27;20451;-75
2023/08/03 07:41:15;;;;;;;4.80;1.00;;;18.00;87.50;;;;;;5116226;27;20072;-76
2023/08/03 07:43:42;;;;;;;3.67;0.70;;;18.00;86.70;;;;;;5135049;27;20653;-76
2023/08/03 07:46:09;;;;;;;3.90;0.93;;;18.00;86.40;;;;;;5109487;27;20068;-76
2023/08/03 07:48:36;;;;;;;2.00;0.60;;;18.10;86.00;;;;;;5109633;28;20312;-77
2023/08/03 07:51:11;;;;;;;4.32;0.80;;;18.10;85.90;;;;;;5110616;27;20050;-77
2023/08/03 07:53:39;;;;;;;2.80;0.80;;;18.10;86.20;;;;;;5110280;27;20084;-77
2023/08/03 07:56:14;;;;;;;2.97;0.80;;;18.10;86.10;;;;;;5108402;28;20044;-78
2023/08/03 07:58:41;;;;;;;2.73;0.60;;;18.20;85.20;;;;;;5108883;27;20071;-78
2023/08/03 08:01:08;;;;;;;2.30;0.60;;;18.20;84.80;;;;;;5090995;28;20556;-78
2023/08/03 08:03:35;;;;;;;2.78;0.60;;;18.20;84.50;;;;;;5110867;27;20048;-78
2023/08/03 08:06:06;;;;;;;4.18;0.82;;;18.30;83.90;;;;;;5115846;27;20599;-77
2023/08/03 08:08:33;;;;;;;5.80;0.70;;;18.30;84.00;;;;;;5101690;28;20055;-77
2023/08/03 08:11:02;;;;;;;2.00;0.50;;;18.40;84.20;;;;;;5101285;28;20139;-77
2023/08/03 08:13:30;;;;;;;4.13;0.77;;;18.50;84.00;;;;;;5088106;27;20286;-77
2023/08/03 08:15:59;;;;;;;2.08;0.55;;;18.50;83.30;;;;;;5102980;27;20072;-77
2023/08/03 08:18:25;;;;;;;5.45;0.95;;;18.50;82.40;;;;;;5136600;27;20591;-78
2023/08/03 08:20:55;;;;;;;3.63;0.80;;;18.50;82.90;;;;;;5142120;27;20127;-77
2023/08/03 08:23:22;;;;;;;2.03;0.50;;;18.60;83.20;;;;;;5128262;27;20544;-77
2023/08/03 08:25:49;;;;;;;3.97;0.73;;;18.60;82.50;;;;;;5113506;27;20384;-77
2023/08/03 08:28:18;;;;;;;4.05;1.00;;;18.60;82.30;;;;;;5114310;27;20143;-77
2023/08/03 08:30:45;;;;;;;4.22;0.70;;;18.70;82.00;;;;;;5109689;27;20056;-77
2023/08/03 08:33:14;;;;;;;2.67;0.50;;;18.70;82.30;;;;;;5109965;27;20071;-77
2023/08/03 08:35:41;;;;;;;3.13;0.60;;;18.70;81.90;;;;;;5111534;27;20498;-79
2023/08/03 08:38:10;;;;;;;3.13;0.70;;;18.70;82.00;;;;;;5109937;27;20703;-77
2023/08/03 08:40:37;;;;;;;3.25;0.70;;;18.80;81.50;;;;;;5144390;27;20047;-77
2023/08/03 08:43:04;;;;;;;2.90;0.70;;;18.80;80.80;;;;;;5113557;27;20494;-77
2023/08/03 08:45:32;;;;;;;3.22;0.63;;;18.80;80.70;;;;;;5142464;27;20055;-78
2023/08/03 08:48:01;;;;;;;3.87;0.67;;;18.80;80.20;;;;;;5107379;27;20443;-77
2023/08/03 08:50:28;;;;;;;3.42;1.02;;;18.80;80.00;;;;;;5108040;27;20243;-77
2023/08/03 08:52:57;;;;;;;3.88;0.50;;;18.80;80.80;;;;;;5107980;28;20252;-77
2023/08/03 08:55:25;;;;;;;3.63;0.50;;;18.90;79.70;;;;;;5106766;28;20059;-78
2023/08/03 08:57:53;;;;;;;3.13;0.68;;;18.90;80.10;;;;;;5109229;28;20052;-76
2023/08/03 09:00:23;;;;;;;3.30;0.60;;;18.90;80.20;;;;;;5109044;28;20164;-76
2023/08/03 09:02:55;;;;;;;3.03;0.70;;;18.90;80.60;;;;;;5114713;27;20285;-76
2023/08/03 09:05:24;;;;;;;2.60;0.50;;;19.00;80.00;;;;;;5108371;27;20048;-76
2023/08/03 09:08:00;;;;;;;3.78;0.70;;;19.00;79.40;;;;;;5108148;28;20040;-76
2023/08/03 09:10:27;;;;;;;3.58;0.88;;;19.00;80.20;;;;;;5105780;28;20044;-75
2023/08/03 09:12:55;;;;;;;4.30;0.70;;;19.00;80.50;;;;;;5107062;28;20529;-75
2023/08/03 09:15:37;;;;;;;4.40;0.70;;;19.10;80.60;;;;;;5107819;27;20287;-75
2023/08/03 09:18:06;;;;;;;4.28;0.82;;;19.10;80.20;;;;;;5109832;27;20484;-76
2023/08/03 09:20:35;;;;;;;3.78;0.80;;;19.20;79.70;;;;;;5107102;27;20040;-75
2023/08/03 09:23:02;;;;;;;5.40;0.82;;;19.20;79.10;;;;;;5108374;27;20149;-75
2023/08/03 09:25:30;;;;;;;3.63;0.80;;;19.30;78.30;;;;;;5112223;27;20047;-75
2023/08/03 09:27:57;;;;;;;3.05;0.70;;;19.30;78.80;;;;;;5108280;28;20687;-75
2023/08/03 09:30:25;;;;;;;2.10;0.40;;;19.30;78.60;;;;;;5118563;27;20048;-76
2023/08/03 09:32:52;;;;;;;3.60;0.70;;;19.30;78.20;;;;;;5114001;27;20078;-75
2023/08/03 09:35:22;;;;;;;5.25;1.13;;;19.40;78.20;;;;;;5116322;27;20125;-76
2023/08/03 09:37:50;;;;;;;3.67;1.00;;;19.40;78.10;;;;;;5117742;27;20054;-76
2023/08/03 09:40:19;;;;;;;1.60;0.30;;;19.50;78.30;;;;;;5114154;27;20334;-76
2023/08/03 09:42:48;;;;;;;11.38;1.70;;;19.50;78.10;;;;;;5110999;27;20059;-75
2023/08/03 09:45:17;;;;;;;3.72;0.70;;;19.50;77.60;;;;;;5116633;27;20044;-75
2023/08/03 09:47:44;;;;;;;13.65;2.78;;;19.60;76.90;;;;;;5108560;27;20048;-75
2023/08/03 09:50:11;;;;;;;4.30;0.60;;;19.70;77.90;;;;;;5116518;27;20074;-76
2023/08/03 09:52:45;;;;;;;3.38;0.88;;;19.70;77.50;;;;;;5096854;27;20309;-75
2023/08/03 09:55:19;;;;;;;24.45;5.80;;;19.70;76.10;;;;;;5114705;27;20044;-75
2023/08/03 09:57:57;;;;;;;3.13;0.60;;;19.70;75.60;;;;;;5107834;27;20876;-76
2023/08/03 10:00:25;;;;;;;3.33;0.70;;;19.80;75.80;;;;;;5108598;27;20048;-76
2023/08/03 10:02:59;;;;;;;3.80;0.70;;;19.80;75.80;;;;;;5108314;27;20044;-76
2023/08/03 10:05:27;;;;;;;2.97;0.60;;;19.70;75.70;;;;;;5113466;27;20436;-76
2023/08/03 10:08:05;;;;;;;5.03;0.70;;;19.80;75.90;;;;;;5114850;27;20044;-75
2023/08/03 10:10:37;;;;;;;3.83;0.60;;;19.80;75.10;;;;;;5109689;27;20143;-75
2023/08/03 10:13:04;;;;;;;5.93;0.70;;;19.90;74.90;;;;;;5117435;27;20118;-75
2023/08/03 10:15:32;;;;;;;3.97;0.87;;;19.90;75.50;;;;;;5119514;27;20051;-77
2023/08/03 10:18:00;;;;;;;5.22;0.60;;;20.00;75.10;;;;;;5119719;27;20806;-77
2023/08/03 10:20:27;;;;;;;4.50;0.60;;;20.10;75.30;;;;;;5103462;27;20153;-77
2023/08/03 10:23:15;;;;;;;4.05;1.00;;;20.10;74.40;;;;;;5114452;27;20513;-78
2023/08/03 10:25:56;;;;;;;3.33;0.80;;;20.10;74.70;;;;;;5122176;27;20466;-78
2023/08/03 10:28:24;;;;;;;4.43;0.80;;;20.20;74.70;;;;;;5112453;27;20169;-77
2023/08/03 10:31:05;;;;;;;3.47;0.77;;;20.30;74.50;;;;;;5110043;27;20346;-77
2023/08/03 10:34:14;;;;;;;5.22;0.82;;;20.30;74.90;;;;;;5133975;27;21101;-77
2023/08/03 10:36:49;;;;;;;5.05;1.15;;;20.30;74.10;;;;;;5108224;27;20060;-77
2023/08/03 10:39:49;;;;;;;4.25;0.82;;;20.40;73.00;;;;;;5087351;28;20678;-77
2023/08/03 10:42:29;;;;;;;3.33;1.10;;;20.50;71.20;;;;;;5108271;27;20468;-77
2023/08/03 10:45:26;;;;;;;4.63;1.00;;;20.50;71.80;;;;;;5108683;27;20359;-77
2023/08/03 10:47:54;;;;;;;4.15;1.08;;;20.50;72.30;;;;;;5106098;28;20054;-78
2023/08/03 10:50:21;;;;;;;6.78;1.10;;;20.50;71.90;;;;;;5091355;28;20052;-78
2023/08/03 10:52:47;;;;;;;4.95;1.00;;;20.60;72.30;;;;;;5108338;28;20052;-77
2023/08/03 10:55:24;;;;;;;5.00;1.00;;;20.60;72.50;;;;;;5107560;28;20052;-77
2023/08/03 10:57:52;;;;;;;6.40;1.20;;;20.70;72.20;;;;;;5109478;27;20304;-76
2023/08/03 11:00:18;;;;;;;4.90;0.93;;;20.80;71.90;;;;;;5106257;28;20054;-76
2023/08/03 11:02:45;;;;;;;3.03;0.75;;;20.80;71.90;;;;;;5107811;28;20537;-80
2023/08/03 11:05:12;;;;;;;5.13;1.10;;;20.90;70.50;;;;;;5113773;27;20051;-80
2023/08/03 11:07:40;;;;;;;3.60;1.00;;;20.90;70.10;;;;;;5109763;27;20055;-80
2023/08/03 11:10:09;;;;;;;4.90;1.00;;;20.90;69.90;;;;;;5106425;28;20791;-81
2023/08/03 11:12:39;;;;;;;5.93;1.17;;;20.90;70.90;;;;;;5108309;27;20055;-80
2023/08/03 11:15:07;;;;;;;3.75;0.80;;;20.90;70.70;;;;;;5104194;28;20052;-81
2023/08/03 11:17:35;;;;;;;4.78;0.80;;;20.80;70.70;;;;;;5090268;28;20113;-81
2023/08/03 11:20:03;;;;;;;4.80;0.93;;;20.80;70.70;;;;;;5107355;28;20098;-81
2023/08/03 11:22:31;;;;;;;3.13;0.77;;;20.80;71.00;;;;;;5133744;27;20251;-80
2023/08/03 11:25:00;;;;;;;3.85;0.50;;;20.80;71.40;;;;;;5105619;27;20071;-80
2023/08/03 11:27:27;;;;;;;3.03;0.47;;;20.80;69.80;;;;;;5109361;27;20158;-81
2023/08/03 11:29:56;;;;;;;3.70;0.47;;;20.80;70.00;;;;;;5108052;27;20047;-80
2023/08/03 11:32:24;;;;;;;4.17;0.80;;;20.80;69.60;;;;;;5105987;27;20180;-81
2023/08/03 11:34:58;;;;;;;2.92;0.60;;;20.80;69.60;;;;;;5106849;28;20273;-80
2023/08/03 11:37:27;;;;;;;2.08;0.40;;;20.90;70.90;;;;;;5107151;27;20056;-80
2023/08/03 11:39:54;;;;;;;3.67;0.70;;;20.90;70.00;;;;;;5128616;27;20538;-81
2023/08/03 11:42:21;;;;;;;3.83;0.45;;;20.90;70.50;;;;;;5085324;28;20045;-80
2023/08/03 11:44:48;;;;;;;3.70;0.50;;;21.00;70.40;;;;;;5106452;27;20076;-80
2023/08/03 11:47:17;;;;;;;6.90;0.75;;;21.00;69.80;;;;;;5120063;27;20249;-81
2023/08/03 11:49:44;;;;;;;2.78;0.50;;;21.10;70.10;;;;;;5116849;27;20044;-81
2023/08/03 11:52:18;;;;;;;2.70;0.50;;;21.10;70.20;;;;;;5128769;27;20452;-81
2023/08/03 11:54:45;;;;;;;3.38;0.80;;;21.10;70.30;;;;;;5120355;27;20126;-81
2023/08/03 11:59:57;;;;;;;3.25;0.70;;;21.10;72.70;;;;;;5110169;28;20282;-80
2023/08/03 12:02:38;;;;;;;4.22;0.60;;;21.10;71.20;;;;;;5118507;27;20119;-80
2023/08/03 12:05:06;;;;;;;2.97;0.68;;;21.10;71.70;;;;;;5118061;27;20051;-80
2023/08/03 12:07:33;;;;;;;4.32;0.80;;;21.20;70.60;;;;;;5114789;27;20095;-82
2023/08/03 12:10:00;;;;;;;2.80;0.70;;;21.20;70.10;;;;;;5109750;27;20504;-83
2023/08/03 12:12:27;;;;;;;6.05;0.90;;;21.30;70.60;;;;;;5115559;27;20739;-84
2023/08/03 12:14:54;;;;;;;2.33;0.47;;;21.30;71.20;;;;;;5093461;28;20070;-82
2023/08/03 12:17:21;;;;;;;4.03;0.95;;;21.30;72.10;;;;;;5114878;27;20058;-80
2023/08/03 12:19:49;;;;;;;3.67;0.50;;;21.30;72.20;;;;;;5110938;28;20056;-80
2023/08/03 12:22:16;;;;;;;4.73;1.13;;;21.30;73.70;;;;;;5108949;28;20044;-80
2023/08/03 12:24:43;;;;;;;3.22;0.68;;;21.40;73.20;;;;;;5107160;28;20397;-81
2023/08/03 12:27:10;;;;;;;4.13;1.00;;;21.40;73.10;;;;;;5112139;27;20048;-81
2023/08/03 12:29:37;;;;;;;4.97;0.65;;;21.40;72.20;;;;;;5109485;27;20147;-81
2023/08/03 12:32:05;;;;;;;5.57;0.80;;;21.50;72.60;;;;;;5109603;27;20118;-81
2023/08/03 12:34:32;;;;;;;5.87;1.10;;;21.50;72.00;;;;;;5094952;27;20510;-81
2023/08/03 12:37:00;;;;;;;5.30;0.90;;;21.50;71.90;;;;;;5116001;27;20744;-82
2023/08/03 12:39:27;;;;;;;4.05;0.90;;;21.50;72.50;;;;;;5114636;27;20052;-82
2023/08/03 12:41:54;;;;;;;4.53;0.90;;;21.50;71.80;;;;;;5115562;27;20075;-82
2023/08/03 12:44:21;;;;;;;5.05;0.93;;;21.50;71.10;;;;;;5114376;27;20052;-81
2023/08/03 12:46:48;;;;;;;5.37;0.93;;;21.50;71.90;;;;;;5109083;27;20119;-81
2023/08/03 12:49:18;;;;;;;4.95;0.77;;;21.50;72.20;;;;;;5114017;27;20270;-81
2023/08/03 12:51:45;;;;;;;3.85;0.70;;;21.50;72.30;;;;;;5115184;27;20047;-81
2023/08/03 12:54:13;;;;;;;2.50;0.70;;;21.50;72.00;;;;;;5111955;27;20514;-83
2023/08/03 12:56:40;;;;;;;3.20;0.50;;;21.50;70.10;;;;;;5091376;27;20055;-80